KWYS/WYS METAR and TAF weather

Enter ICAO airport designator
Station Type Date Time Source
KWYS METAR 2020/10/20 17:55 UTC NOAA

KWYS 201755Z AUTO 23007G16KT 220V280 10SM CLR 07/M04 A3005 RMK AO2


Station Type Date Time Source
KWYS Decoded METAR 2020/10/20 17:55 UTC NOAA

West Yellowstone, MT, United States (KWYS) 44-41N 111-07W
Oct 20, 2020 - 01:55 PM EDT / 2020.10.20 1755 UTC
Wind: from the SW (230 degrees) at 8 MPH (7 KT) gusting to 18 MPH (16 KT) (direction variable):0
Visibility: 10 mile(s):0
Sky conditions: clear
Temperature: 44 F (7 C)
Dew Point: 24 F (-4 C)
Relative Humidity: 45%
Pressure (altimeter): 30.05 in. Hg (1017 hPa)
ob: KWYS 201755Z AUTO 23007G16KT 220V280 10SM CLR 07/M04 A3005 RMK AO2
cycle: 18

Station Type Date Time Source
KWYS TAF 2020/10/20 18:42 UTC NOAA

TAF KWYS 201742Z 2018/2118 25011G18KT P6SM SCT050 BKN070
FM210200 22007KT P6SM SCT030 BKN050
FM211100 20008KT P6SM SCT010 BKN040 PROB30 2112/2116 4SM -SN BR BKN005
FM211600 21013G21KT P6SM SCT003 BKN030 WS020/23040KT PROB30 2116/2118 4SM -RASN BR BKN003

Example: see airport list